sensor_id;sensor_type;location;lat;lon;timestamp;temperature;humidity
871;DHT22;422;51.280;7.236;2023-05-07T00:02:04;14.20;45.80
871;DHT22;422;51.280;7.236;2023-05-07T00:04:31;14.20;1.00
871;DHT22;422;51.280;7.236;2023-05-07T00:07:02;14.20;1.00
871;DHT22;422;51.280;7.236;2023-05-07T00:09:29;14.20;1.00
871;DHT22;422;51.280;7.236;2023-05-07T00:11:56;14.20;1.00
871;DHT22;422;51.280;7.236;2023-05-07T00:14:25;14.20;99.90
871;DHT22;422;51.280;7.236;2023-05-07T00:16:52;14.20;99.90
871;DHT22;422;51.280;7.236;2023-05-07T00:19:19;14.10;1.00
871;DHT22;422;51.280;7.236;2023-05-07T00:21:46;14.10;1.00
871;DHT22;422;51.280;7.236;2023-05-07T00:24:14;14.10;99.90
871;DHT22;422;51.280;7.236;2023-05-07T00:26:41;14.00;99.90
871;DHT22;422;51.280;7.236;2023-05-07T00:29:08;14.00;99.90
871;DHT22;422;51.280;7.236;2023-05-07T00:31:37;14.00;1.00
871;DHT22;422;51.280;7.236;2023-05-07T00:34:04;14.00;1.00
871;DHT22;422;51.280;7.236;2023-05-07T00:36:31;14.00;1.00
871;DHT22;422;51.280;7.236;2023-05-07T00:39:00;14.00;99.90
871;DHT22;422;51.280;7.236;2023-05-07T00:41:28;14.00;1.00
871;DHT22;422;51.280;7.236;2023-05-07T00:43:56;14.10;1.00
871;DHT22;422;51.280;7.236;2023-05-07T00:46:23;14.00;1.00
871;DHT22;422;51.280;7.236;2023-05-07T00:48:53;14.10;1.00
871;DHT22;422;51.280;7.236;2023-05-07T00:51:22;14.10;1.00
871;DHT22;422;51.280;7.236;2023-05-07T00:53:50;14.00;1.00
871;DHT22;422;51.280;7.236;2023-05-07T00:56:17;14.00;1.00
871;DHT22;422;51.280;7.236;2023-05-07T00:58:45;14.10;1.00
871;DHT22;422;51.280;7.236;2023-05-07T01:01:12;14.10;1.00
871;DHT22;422;51.280;7.236;2023-05-07T01:03:41;14.00;99.90
871;DHT22;422;51.280;7.236;2023-05-07T01:06:10;14.00;99.90
871;DHT22;422;51.280;7.236;2023-05-07T01:08:43;14.00;1.00
871;DHT22;422;51.280;7.236;2023-05-07T01:11:11;14.00;1.00
871;DHT22;422;51.280;7.236;2023-05-07T01:13:39;14.00;1.00
871;DHT22;422;51.280;7.236;2023-05-07T01:16:08;14.00;1.00
871;DHT22;422;51.280;7.236;2023-05-07T01:18:36;13.90;1.00
871;DHT22;422;51.280;7.236;2023-05-07T01:21:04;14.00;24.10
871;DHT22;422;51.280;7.236;2023-05-07T01:23:33;14.00;11.30
871;DHT22;422;51.280;7.236;2023-05-07T01:26:02;14.00;1.00
871;DHT22;422;51.280;7.236;2023-05-07T01:28:29;14.00;1.00
871;DHT22;422;51.280;7.236;2023-05-07T01:31:01;13.90;1.00
871;DHT22;422;51.280;7.236;2023-05-07T01:33:31;14.00;1.00
871;DHT22;422;51.280;7.236;2023-05-07T01:36:00;14.00;1.00
871;DHT22;422;51.280;7.236;2023-05-07T01:38:30;14.00;13.80
871;DHT22;422;51.280;7.236;2023-05-07T01:40:59;14.00;40.10
871;DHT22;422;51.280;7.236;2023-05-07T01:43:26;13.90;15.10
871;DHT22;422;51.280;7.236;2023-05-07T01:45:54;13.90;39.00
871;DHT22;422;51.280;7.236;2023-05-07T01:48:22;13.90;99.90
871;DHT22;422;51.280;7.236;2023-05-07T01:50:49;13.90;99.90
871;DHT22;422;51.280;7.236;2023-05-07T01:53:17;13.80;99.90
871;DHT22;422;51.280;7.236;2023-05-07T01:55:44;13.80;99.90
871;DHT22;422;51.280;7.236;2023-05-07T01:58:12;13.70;99.90
871;DHT22;422;51.280;7.236;2023-05-07T02:00:40;13.70;99.90
871;DHT22;422;51.280;7.236;2023-05-07T02:03:07;13.70;99.90
871;DHT22;422;51.280;7.236;2023-05-07T02:05:34;13.70;99.90
871;DHT22;422;51.280;7.236;2023-05-07T02:08:02;13.70;99.90
871;DHT22;422;51.280;7.236;2023-05-07T02:10:29;13.70;99.90
871;DHT22;422;51.280;7.236;2023-05-07T02:12:56;13.70;99.90
871;DHT22;422;51.280;7.236;2023-05-07T02:15:25;13.70;99.90
871;DHT22;422;51.280;7.236;2023-05-07T02:17:59;13.70;99.90
871;DHT22;422;51.280;7.236;2023-05-07T02:20:27;13.70;51.80
871;DHT22;422;51.280;7.236;2023-05-07T02:22:54;13.60;1.00
871;DHT22;422;51.280;7.236;2023-05-07T02:25:21;13.70;1.00
871;DHT22;422;51.280;7.236;2023-05-07T02:27:48;13.60;51.90
871;DHT22;422;51.280;7.236;2023-05-07T02:30:16;13.60;56.60
871;DHT22;422;51.280;7.236;2023-05-07T02:32:44;13.60;40.50
871;DHT22;422;51.280;7.236;2023-05-07T02:35:12;13.60;99.90
871;DHT22;422;51.280;7.236;2023-05-07T02:37:39;13.60;99.90
871;DHT22;422;51.280;7.236;2023-05-07T02:40:07;13.50;99.90
871;DHT22;422;51.280;7.236;2023-05-07T02:42:34;13.50;99.90
871;DHT22;422;51.280;7.236;2023-05-07T02:45:02;13.40;99.90
871;DHT22;422;51.280;7.236;2023-05-07T02:47:29;13.40;99.90
871;DHT22;422;51.280;7.236;2023-05-07T02:49:57;13.30;99.90
871;DHT22;422;51.280;7.236;2023-05-07T02:52:25;13.40;99.90
871;DHT22;422;51.280;7.236;2023-05-07T02:54:52;13.30;99.90
871;DHT22;422;51.280;7.236;2023-05-07T02:57:19;13.30;99.90
871;DHT22;422;51.280;7.236;2023-05-07T02:59:46;13.30;99.90
871;DHT22;422;51.280;7.236;2023-05-07T03:02:13;13.30;99.90
871;DHT22;422;51.280;7.236;2023-05-07T03:04:40;13.20;99.90
871;DHT22;422;51.280;7.236;2023-05-07T03:07:09;13.20;99.90
871;DHT22;422;51.280;7.236;2023-05-07T03:09:36;13.10;99.90
871;DHT22;422;51.280;7.236;2023-05-07T03:12:04;13.00;99.90
871;DHT22;422;51.280;7.236;2023-05-07T03:14:31;13.00;99.90
871;DHT22;422;51.280;7.236;2023-05-07T03:16:58;13.10;99.90
871;DHT22;422;51.280;7.236;2023-05-07T03:19:25;13.00;99.90
871;DHT22;422;51.280;7.236;2023-05-07T03:21:52;13.00;99.90
871;DHT22;422;51.280;7.236;2023-05-07T03:24:21;13.10;99.90
871;DHT22;422;51.280;7.236;2023-05-07T03:26:48;13.00;99.90
871;DHT22;422;51.280;7.236;2023-05-07T03:29:15;13.00;99.90
871;DHT22;422;51.280;7.236;2023-05-07T03:31:42;13.00;99.90
871;DHT22;422;51.280;7.236;2023-05-07T03:34:10;13.00;99.90
871;DHT22;422;51.280;7.236;2023-05-07T03:36:37;13.00;99.90
871;DHT22;422;51.280;7.236;2023-05-07T03:39:05;12.90;99.90
871;DHT22;422;51.280;7.236;2023-05-07T03:41:34;12.90;99.90
871;DHT22;422;51.280;7.236;2023-05-07T03:44:01;12.90;99.90
871;DHT22;422;51.280;7.236;2023-05-07T03:46:28;12.80;99.90
871;DHT22;422;51.280;7.236;2023-05-07T03:48:55;12.90;99.90
871;DHT22;422;51.280;7.236;2023-05-07T03:51:22;12.90;99.90
871;DHT22;422;51.280;7.236;2023-05-07T03:53:49;12.80;99.90
871;DHT22;422;51.280;7.236;2023-05-07T03:56:18;12.90;99.90
871;DHT22;422;51.280;7.236;2023-05-07T03:58:48;12.80;99.90
871;DHT22;422;51.280;7.236;2023-05-07T04:01:15;12.90;99.90
871;DHT22;422;51.280;7.236;2023-05-07T04:03:42;12.90;99.90
871;DHT22;422;51.280;7.236;2023-05-07T04:06:09;12.90;99.90
871;DHT22;422;51.280;7.236;2023-05-07T04:08:37;12.80;99.90
871;DHT22;422;51.280;7.236;2023-05-07T04:11:05;12.80;99.90
871;DHT22;422;51.280;7.236;2023-05-07T04:13:32;12.70;99.90
871;DHT22;422;51.280;7.236;2023-05-07T04:16:01;12.70;99.90
871;DHT22;422;51.280;7.236;2023-05-07T04:18:29;12.70;99.90
871;DHT22;422;51.280;7.236;2023-05-07T04:20:56;12.60;99.90
871;DHT22;422;51.280;7.236;2023-05-07T04:23:23;12.60;99.90
871;DHT22;422;51.280;7.236;2023-05-07T04:25:50;12.50;99.90
871;DHT22;422;51.280;7.236;2023-05-07T04:28:18;12.50;99.90
871;DHT22;422;51.280;7.236;2023-05-07T04:30:45;12.50;99.90
871;DHT22;422;51.280;7.236;2023-05-07T04:33:14;12.50;99.90
871;DHT22;422;51.280;7.236;2023-05-07T04:35:42;12.40;99.90
871;DHT22;422;51.280;7.236;2023-05-07T04:38:09;12.50;99.90
871;DHT22;422;51.280;7.236;2023-05-07T04:40:36;12.60;99.90
871;DHT22;422;51.280;7.236;2023-05-07T04:43:04;12.70;99.90
871;DHT22;422;51.280;7.236;2023-05-07T04:45:33;12.80;99.90
871;DHT22;422;51.280;7.236;2023-05-07T04:48:00;12.90;99.90
871;DHT22;422;51.280;7.236;2023-05-07T04:50:29;12.90;99.90
871;DHT22;422;51.280;7.236;2023-05-07T04:52:56;12.90;99.90
871;DHT22;422;51.280;7.236;2023-05-07T04:55:23;12.90;99.90
871;DHT22;422;51.280;7.236;2023-05-07T04:57:51;13.00;99.90
871;DHT22;422;51.280;7.236;2023-05-07T05:00:18;13.00;99.90
871;DHT22;422;51.280;7.236;2023-05-07T05:02:46;13.10;99.90
871;DHT22;422;51.280;7.236;2023-05-07T05:05:13;13.20;99.90
871;DHT22;422;51.280;7.236;2023-05-07T05:07:42;13.20;99.90
871;DHT22;422;51.280;7.236;2023-05-07T05:10:09;13.30;99.90
871;DHT22;422;51.280;7.236;2023-05-07T05:12:36;13.30;99.90
871;DHT22;422;51.280;7.236;2023-05-07T05:15:04;13.50;99.90
871;DHT22;422;51.280;7.236;2023-05-07T05:17:32;13.50;99.90
871;DHT22;422;51.280;7.236;2023-05-07T05:20:01;13.60;99.90
871;DHT22;422;51.280;7.236;2023-05-07T05:22:29;13.60;99.90
871;DHT22;422;51.280;7.236;2023-05-07T05:24:58;13.60;99.90
871;DHT22;422;51.280;7.236;2023-05-07T05:27:26;13.70;1.00
871;DHT22;422;51.280;7.236;2023-05-07T05:29:53;13.70;5.30
871;DHT22;422;51.280;7.236;2023-05-07T05:32:20;13.80;1.00
871;DHT22;422;51.280;7.236;2023-05-07T05:34:47;13.90;1.00
871;DHT22;422;51.280;7.236;2023-05-07T05:37:15;14.00;28.00
871;DHT22;422;51.280;7.236;2023-05-07T05:39:42;14.00;1.00
871;DHT22;422;51.280;7.236;2023-05-07T05:42:11;14.10;99.90
871;DHT22;422;51.280;7.236;2023-05-07T05:44:38;14.20;99.90
871;DHT22;422;51.280;7.236;2023-05-07T05:47:05;14.30;99.90
871;DHT22;422;51.280;7.236;2023-05-07T05:49:32;14.40;1.00
871;DHT22;422;51.280;7.236;2023-05-07T05:52:00;14.50;1.00
871;DHT22;422;51.280;7.236;2023-05-07T05:54:27;14.70;1.00
871;DHT22;422;51.280;7.236;2023-05-07T05:56:54;14.80;99.90
871;DHT22;422;51.280;7.236;2023-05-07T05:59:23;14.80;17.30
871;DHT22;422;51.280;7.236;2023-05-07T06:01:50;14.90;1.00
871;DHT22;422;51.280;7.236;2023-05-07T06:04:17;15.10;1.00
871;DHT22;422;51.280;7.236;2023-05-07T06:06:44;15.20;1.00
871;DHT22;422;51.280;7.236;2023-05-07T06:09:11;15.30;1.00
871;DHT22;422;51.280;7.236;2023-05-07T06:11:39;15.40;1.00
871;DHT22;422;51.280;7.236;2023-05-07T06:14:06;15.60;1.00
871;DHT22;422;51.280;7.236;2023-05-07T06:16:35;15.60;1.00
871;DHT22;422;51.280;7.236;2023-05-07T06:19:03;15.70;1.00
871;DHT22;422;51.280;7.236;2023-05-07T06:21:31;15.80;1.00
871;DHT22;422;51.280;7.236;2023-05-07T06:23:58;15.90;1.00
871;DHT22;422;51.280;7.236;2023-05-07T06:26:25;15.90;1.00
871;DHT22;422;51.280;7.236;2023-05-07T06:28:52;16.10;1.00
871;DHT22;422;51.280;7.236;2023-05-07T06:31:20;16.30;1.00
871;DHT22;422;51.280;7.236;2023-05-07T06:33:48;16.50;1.00
871;DHT22;422;51.280;7.236;2023-05-07T06:36:16;16.80;1.00
871;DHT22;422;51.280;7.236;2023-05-07T06:38:43;17.00;1.00
871;DHT22;422;51.280;7.236;2023-05-07T06:41:10;17.10;1.00
871;DHT22;422;51.280;7.236;2023-05-07T06:43:37;17.10;1.00
871;DHT22;422;51.280;7.236;2023-05-07T06:46:04;17.20;1.00
871;DHT22;422;51.280;7.236;2023-05-07T06:48:32;17.20;1.00
871;DHT22;422;51.280;7.236;2023-05-07T06:51:00;17.30;99.90
871;DHT22;422;51.280;7.236;2023-05-07T06:53:27;17.30;99.90
871;DHT22;422;51.280;7.236;2023-05-07T06:55:56;17.30;99.90
871;DHT22;422;51.280;7.236;2023-05-07T06:58:23;17.30;99.90
871;DHT22;422;51.280;7.236;2023-05-07T07:00:50;17.40;99.90
871;DHT22;422;51.280;7.236;2023-05-07T07:03:18;17.40;99.90
871;DHT22;422;51.280;7.236;2023-05-07T07:05:45;17.30;99.90
871;DHT22;422;51.280;7.236;2023-05-07T07:08:13;17.50;99.90
871;DHT22;422;51.280;7.236;2023-05-07T07:10:42;17.80;99.90
871;DHT22;422;51.280;7.236;2023-05-07T07:13:10;18.00;99.90
871;DHT22;422;51.280;7.236;2023-05-07T07:15:37;18.20;99.90
871;DHT22;422;51.280;7.236;2023-05-07T07:18:04;18.40;99.90
871;DHT22;422;51.280;7.236;2023-05-07T07:20:31;18.50;99.90
871;DHT22;422;51.280;7.236;2023-05-07T07:22:59;18.70;99.90
871;DHT22;422;51.280;7.236;2023-05-07T07:25:27;18.90;99.90
871;DHT22;422;51.280;7.236;2023-05-07T07:27:54;19.00;99.90
871;DHT22;422;51.280;7.236;2023-05-07T07:30:22;19.10;99.90
871;DHT22;422;51.280;7.236;2023-05-07T07:32:49;19.10;99.90
871;DHT22;422;51.280;7.236;2023-05-07T07:35:17;19.10;99.90
871;DHT22;422;51.280;7.236;2023-05-07T07:37:44;19.20;99.90
871;DHT22;422;51.280;7.236;2023-05-07T07:40:12;19.50;99.90
871;DHT22;422;51.280;7.236;2023-05-07T07:42:41;19.70;99.90
871;DHT22;422;51.280;7.236;2023-05-07T07:45:08;20.00;99.90
871;DHT22;422;51.280;7.236;2023-05-07T07:47:35;20.20;99.90
871;DHT22;422;51.280;7.236;2023-05-07T07:50:03;20.60;99.90
871;DHT22;422;51.280;7.236;2023-05-07T07:52:30;20.50;99.90
871;DHT22;422;51.280;7.236;2023-05-07T07:54:57;20.50;99.90
871;DHT22;422;51.280;7.236;2023-05-07T07:57:25;20.60;99.90
871;DHT22;422;51.280;7.236;2023-05-07T07:59:53;20.80;99.90
871;DHT22;422;51.280;7.236;2023-05-07T08:02:21;21.20;99.90
871;DHT22;422;51.280;7.236;2023-05-07T08:04:48;21.20;99.90
871;DHT22;422;51.280;7.236;2023-05-07T08:07:15;21.40;99.90
871;DHT22;422;51.280;7.236;2023-05-07T08:09:44;21.50;99.90
871;DHT22;422;51.280;7.236;2023-05-07T08:12:11;21.70;99.90
871;DHT22;422;51.280;7.236;2023-05-07T08:14:39;21.80;99.90
871;DHT22;422;51.280;7.236;2023-05-07T08:17:07;21.60;99.90
871;DHT22;422;51.280;7.236;2023-05-07T08:19:36;21.50;99.90
871;DHT22;422;51.280;7.236;2023-05-07T08:22:03;21.00;99.90
871;DHT22;422;51.280;7.236;2023-05-07T08:24:31;21.00;99.90
871;DHT22;422;51.280;7.236;2023-05-07T08:26:58;21.60;99.90
871;DHT22;422;51.280;7.236;2023-05-07T08:29:25;21.60;99.90
871;DHT22;422;51.280;7.236;2023-05-07T08:31:52;21.50;99.90
871;DHT22;422;51.280;7.236;2023-05-07T08:34:21;22.00;99.90
871;DHT22;422;51.280;7.236;2023-05-07T08:36:48;22.20;99.90
871;DHT22;422;51.280;7.236;2023-05-07T08:39:16;22.30;99.90
871;DHT22;422;51.280;7.236;2023-05-07T08:41:44;22.40;99.90
871;DHT22;422;51.280;7.236;2023-05-07T08:44:13;22.30;99.90
871;DHT22;422;51.280;7.236;2023-05-07T08:46:41;22.70;99.90
871;DHT22;422;51.280;7.236;2023-05-07T08:49:09;22.90;99.90
871;DHT22;422;51.280;7.236;2023-05-07T08:51:38;23.00;99.90
871;DHT22;422;51.280;7.236;2023-05-07T08:54:05;23.30;99.90
871;DHT22;422;51.280;7.236;2023-05-07T08:56:33;23.20;99.90
871;DHT22;422;51.280;7.236;2023-05-07T08:59:01;23.20;99.90
871;DHT22;422;51.280;7.236;2023-05-07T09:01:29;23.30;99.90
871;DHT22;422;51.280;7.236;2023-05-07T09:03:56;23.30;99.90
871;DHT22;422;51.280;7.236;2023-05-07T09:06:23;23.60;99.90
871;DHT22;422;51.280;7.236;2023-05-07T09:08:54;23.80;99.90
871;DHT22;422;51.280;7.236;2023-05-07T09:11:23;23.90;99.90
871;DHT22;422;51.280;7.236;2023-05-07T09:13:53;24.00;99.90
871;DHT22;422;51.280;7.236;2023-05-07T09:16:22;23.80;99.90
871;DHT22;422;51.280;7.236;2023-05-07T09:18:51;23.60;99.90
871;DHT22;422;51.280;7.236;2023-05-07T09:21:20;23.60;99.90
871;DHT22;422;51.280;7.236;2023-05-07T09:23:49;23.60;99.90
871;DHT22;422;51.280;7.236;2023-05-07T09:26:21;23.30;99.90
871;DHT22;422;51.280;7.236;2023-05-07T09:28:48;23.20;99.90
871;DHT22;422;51.280;7.236;2023-05-07T09:31:15;23.00;99.90
871;DHT22;422;51.280;7.236;2023-05-07T09:33:42;23.50;99.90
871;DHT22;422;51.280;7.236;2023-05-07T09:36:10;24.10;99.90
871;DHT22;422;51.280;7.236;2023-05-07T09:38:37;24.20;99.90
871;DHT22;422;51.280;7.236;2023-05-07T09:41:06;24.60;99.90
871;DHT22;422;51.280;7.236;2023-05-07T09:43:35;25.00;99.90
871;DHT22;422;51.280;7.236;2023-05-07T09:46:05;25.20;99.90
871;DHT22;422;51.280;7.236;2023-05-07T09:48:37;25.30;99.90
871;DHT22;422;51.280;7.236;2023-05-07T09:51:20;25.70;99.90
871;DHT22;422;51.280;7.236;2023-05-07T09:53:48;25.90;99.90
871;DHT22;422;51.280;7.236;2023-05-07T09:56:18;26.00;99.90
871;DHT22;422;51.280;7.236;2023-05-07T09:58:47;25.90;99.90
871;DHT22;422;51.280;7.236;2023-05-07T10:01:17;25.40;99.90
871;DHT22;422;51.280;7.236;2023-05-07T10:03:45;24.70;99.90
871;DHT22;422;51.280;7.236;2023-05-07T10:06:13;24.20;99.90
871;DHT22;422;51.280;7.236;2023-05-07T10:08:42;24.10;99.90
871;DHT22;422;51.280;7.236;2023-05-07T10:11:10;23.80;99.90
871;DHT22;422;51.280;7.236;2023-05-07T10:13:37;23.60;99.90
871;DHT22;422;51.280;7.236;2023-05-07T10:16:06;23.50;99.90
871;DHT22;422;51.280;7.236;2023-05-07T10:18:34;23.30;99.90
871;DHT22;422;51.280;7.236;2023-05-07T10:21:04;23.00;99.90
871;DHT22;422;51.280;7.236;2023-05-07T10:23:33;22.90;99.90
871;DHT22;422;51.280;7.236;2023-05-07T10:26:03;22.50;99.90
871;DHT22;422;51.280;7.236;2023-05-07T10:28:34;22.30;99.90
871;DHT22;422;51.280;7.236;2023-05-07T10:31:15;22.50;99.90
871;DHT22;422;51.280;7.236;2023-05-07T10:33:47;22.70;99.90
871;DHT22;422;51.280;7.236;2023-05-07T10:36:17;22.90;99.90
871;DHT22;422;51.280;7.236;2023-05-07T10:38:45;23.00;99.90
871;DHT22;422;51.280;7.236;2023-05-07T10:41:13;23.10;99.90
871;DHT22;422;51.280;7.236;2023-05-07T10:43:43;23.10;99.90
871;DHT22;422;51.280;7.236;2023-05-07T10:46:15;22.50;99.90
871;DHT22;422;51.280;7.236;2023-05-07T10:49:10;22.60;99.90
871;DHT22;422;51.280;7.236;2023-05-07T10:51:38;22.50;99.90
871;DHT22;422;51.280;7.236;2023-05-07T10:54:22;22.40;99.90
871;DHT22;422;51.280;7.236;2023-05-07T10:56:50;22.20;99.90
871;DHT22;422;51.280;7.236;2023-05-07T10:59:36;22.20;99.90
871;DHT22;422;51.280;7.236;2023-05-07T11:02:11;21.80;99.90
871;DHT22;422;51.280;7.236;2023-05-07T11:04:39;21.70;99.90
871;DHT22;422;51.280;7.236;2023-05-07T11:07:29;21.50;99.90
871;DHT22;422;51.280;7.236;2023-05-07T11:10:01;21.40;99.90
871;DHT22;422;51.280;7.236;2023-05-07T11:12:53;21.20;99.90
871;DHT22;422;51.280;7.236;2023-05-07T11:15:41;20.70;99.90
871;DHT22;422;51.280;7.236;2023-05-07T11:18:11;20.20;99.90
871;DHT22;422;51.280;7.236;2023-05-07T11:20:50;20.00;99.90
871;DHT22;422;51.280;7.236;2023-05-07T11:26:44;19.60;99.90
871;DHT22;422;51.280;7.236;2023-05-07T11:29:14;19.50;99.90
871;DHT22;422;51.280;7.236;2023-05-07T11:31:41;19.30;99.90
871;DHT22;422;51.280;7.236;2023-05-07T11:34:11;19.30;99.90
871;DHT22;422;51.280;7.236;2023-05-07T11:36:42;19.20;99.90
871;DHT22;422;51.280;7.236;2023-05-07T11:39:26;19.00;99.90
871;DHT22;422;51.280;7.236;2023-05-07T11:41:53;18.90;99.90
871;DHT22;422;51.280;7.236;2023-05-07T11:44:21;18.70;99.90
871;DHT22;422;51.280;7.236;2023-05-07T11:46:48;18.70;99.90
871;DHT22;422;51.280;7.236;2023-05-07T11:49:17;18.70;99.90
871;DHT22;422;51.280;7.236;2023-05-07T11:51:45;18.70;99.90
871;DHT22;422;51.280;7.236;2023-05-07T11:54:15;18.80;99.90
871;DHT22;422;51.280;7.236;2023-05-07T11:56:44;19.00;99.90
871;DHT22;422;51.280;7.236;2023-05-07T11:59:17;18.80;99.90
871;DHT22;422;51.280;7.236;2023-05-07T12:01:46;18.70;99.90
871;DHT22;422;51.280;7.236;2023-05-07T12:04:14;18.70;99.90
871;DHT22;422;51.280;7.236;2023-05-07T12:06:47;18.80;99.90
871;DHT22;422;51.280;7.236;2023-05-07T12:09:16;19.00;99.90
871;DHT22;422;51.280;7.236;2023-05-07T12:11:46;19.00;99.90
871;DHT22;422;51.280;7.236;2023-05-07T12:14:13;19.00;99.90
871;DHT22;422;51.280;7.236;2023-05-07T12:16:41;19.20;99.90
871;DHT22;422;51.280;7.236;2023-05-07T12:19:09;19.30;99.90
871;DHT22;422;51.280;7.236;2023-05-07T12:21:38;19.30;99.90
871;DHT22;422;51.280;7.236;2023-05-07T12:24:08;19.10;99.90
871;DHT22;422;51.280;7.236;2023-05-07T12:26:38;18.90;99.90
871;DHT22;422;51.280;7.236;2023-05-07T12:29:06;19.00;99.90
871;DHT22;422;51.280;7.236;2023-05-07T12:31:33;19.00;99.90
871;DHT22;422;51.280;7.236;2023-05-07T12:34:00;19.10;99.90
871;DHT22;422;51.280;7.236;2023-05-07T12:36:36;19.10;99.90
871;DHT22;422;51.280;7.236;2023-05-07T12:39:04;19.10;99.90
871;DHT22;422;51.280;7.236;2023-05-07T12:41:36;19.00;99.90
871;DHT22;422;51.280;7.236;2023-05-07T12:44:04;19.00;99.90
871;DHT22;422;51.280;7.236;2023-05-07T12:46:32;18.90;99.90
871;DHT22;422;51.280;7.236;2023-05-07T12:49:05;18.60;99.90
871;DHT22;422;51.280;7.236;2023-05-07T12:51:34;18.50;99.90
871;DHT22;422;51.280;7.236;2023-05-07T12:54:02;18.50;1.00
871;DHT22;422;51.280;7.236;2023-05-07T12:56:35;18.60;1.00
871;DHT22;422;51.280;7.236;2023-05-07T12:59:02;18.50;1.00
871;DHT22;422;51.280;7.236;2023-05-07T13:01:30;18.60;1.00
871;DHT22;422;51.280;7.236;2023-05-07T13:04:02;18.60;1.00
871;DHT22;422;51.280;7.236;2023-05-07T13:06:30;18.60;99.90
871;DHT22;422;51.280;7.236;2023-05-07T13:08:57;18.50;99.90
871;DHT22;422;51.280;7.236;2023-05-07T13:11:25;18.50;99.90
871;DHT22;422;51.280;7.236;2023-05-07T13:13:54;18.50;99.90
871;DHT22;422;51.280;7.236;2023-05-07T13:16:21;18.50;99.90
871;DHT22;422;51.280;7.236;2023-05-07T13:18:48;18.50;99.90
871;DHT22;422;51.280;7.236;2023-05-07T13:21:15;18.50;99.90
871;DHT22;422;51.280;7.236;2023-05-07T13:23:42;18.40;99.90
871;DHT22;422;51.280;7.236;2023-05-07T13:26:10;18.40;99.90
871;DHT22;422;51.280;7.236;2023-05-07T13:28:37;18.40;99.90
871;DHT22;422;51.280;7.236;2023-05-07T13:31:06;18.40;99.90
871;DHT22;422;51.280;7.236;2023-05-07T13:33:33;18.40;99.90
871;DHT22;422;51.280;7.236;2023-05-07T13:36:01;18.60;99.90
871;DHT22;422;51.280;7.236;2023-05-07T13:38:30;18.50;99.90
871;DHT22;422;51.280;7.236;2023-05-07T13:40:57;18.60;99.90
871;DHT22;422;51.280;7.236;2023-05-07T13:43:25;18.60;99.90
871;DHT22;422;51.280;7.236;2023-05-07T13:45:52;18.70;99.90
871;DHT22;422;51.280;7.236;2023-05-07T13:48:21;18.70;99.90
871;DHT22;422;51.280;7.236;2023-05-07T13:50:48;18.70;99.90
871;DHT22;422;51.280;7.236;2023-05-07T13:53:15;18.70;99.90
871;DHT22;422;51.280;7.236;2023-05-07T13:55:44;18.50;99.90
871;DHT22;422;51.280;7.236;2023-05-07T13:58:11;18.50;99.90
871;DHT22;422;51.280;7.236;2023-05-07T14:00:38;18.60;99.90
871;DHT22;422;51.280;7.236;2023-05-07T14:03:05;18.70;99.90
871;DHT22;422;51.280;7.236;2023-05-07T14:05:35;18.60;99.90
871;DHT22;422;51.280;7.236;2023-05-07T14:08:03;18.60;99.90
871;DHT22;422;51.280;7.236;2023-05-07T14:10:30;18.60;99.90
871;DHT22;422;51.280;7.236;2023-05-07T14:13:00;18.40;99.90
871;DHT22;422;51.280;7.236;2023-05-07T14:15:27;18.40;99.90
871;DHT22;422;51.280;7.236;2023-05-07T14:17:55;18.50;99.90
871;DHT22;422;51.280;7.236;2023-05-07T14:20:23;18.50;99.90
871;DHT22;422;51.280;7.236;2023-05-07T14:22:51;18.50;99.90
871;DHT22;422;51.280;7.236;2023-05-07T14:25:19;18.40;99.90
871;DHT22;422;51.280;7.236;2023-05-07T14:27:46;18.30;1.00
871;DHT22;422;51.280;7.236;2023-05-07T14:30:13;18.20;1.00
871;DHT22;422;51.280;7.236;2023-05-07T14:32:40;18.20;1.00
871;DHT22;422;51.280;7.236;2023-05-07T14:35:08;18.10;1.00
871;DHT22;422;51.280;7.236;2023-05-07T14:37:35;18.00;1.00
871;DHT22;422;51.280;7.236;2023-05-07T14:40:05;17.90;1.00
871;DHT22;422;51.280;7.236;2023-05-07T14:42:33;17.90;1.00
871;DHT22;422;51.280;7.236;2023-05-07T14:45:00;17.90;1.00
871;DHT22;422;51.280;7.236;2023-05-07T14:47:27;17.90;1.00
871;DHT22;422;51.280;7.236;2023-05-07T14:49:54;17.80;1.00
871;DHT22;422;51.280;7.236;2023-05-07T14:52:23;17.80;1.00
871;DHT22;422;51.280;7.236;2023-05-07T14:54:50;17.70;1.00
871;DHT22;422;51.280;7.236;2023-05-07T14:57:19;17.70;1.00
871;DHT22;422;51.280;7.236;2023-05-07T14:59:46;17.60;1.00
871;DHT22;422;51.280;7.236;2023-05-07T15:02:13;17.70;1.00
871;DHT22;422;51.280;7.236;2023-05-07T15:04:41;17.60;1.00
871;DHT22;422;51.280;7.236;2023-05-07T15:07:11;17.50;1.00
871;DHT22;422;51.280;7.236;2023-05-07T15:09:40;17.50;1.00
871;DHT22;422;51.280;7.236;2023-05-07T15:12:08;17.40;1.00
871;DHT22;422;51.280;7.236;2023-05-07T15:14:37;17.40;97.60
871;DHT22;422;51.280;7.236;2023-05-07T15:17:04;17.40;99.90
871;DHT22;422;51.280;7.236;2023-05-07T15:19:31;17.40;99.90
871;DHT22;422;51.280;7.236;2023-05-07T15:21:59;17.20;99.90
871;DHT22;422;51.280;7.236;2023-05-07T15:24:28;17.30;99.90
871;DHT22;422;51.280;7.236;2023-05-07T15:26:55;17.20;99.90
871;DHT22;422;51.280;7.236;2023-05-07T15:29:23;17.20;1.00
871;DHT22;422;51.280;7.236;2023-05-07T15:31:52;17.20;1.00
871;DHT22;422;51.280;7.236;2023-05-07T15:34:21;17.20;1.00
871;DHT22;422;51.280;7.236;2023-05-07T15:36:49;17.10;1.00
871;DHT22;422;51.280;7.236;2023-05-07T15:39:16;17.10;1.00
871;DHT22;422;51.280;7.236;2023-05-07T15:41:44;17.00;1.00
871;DHT22;422;51.280;7.236;2023-05-07T15:44:11;17.00;99.90
871;DHT22;422;51.280;7.236;2023-05-07T15:46:38;17.00;99.90
871;DHT22;422;51.280;7.236;2023-05-07T15:49:07;17.00;47.00
871;DHT22;422;51.280;7.236;2023-05-07T15:51:35;16.90;1.00
871;DHT22;422;51.280;7.236;2023-05-07T15:54:02;16.80;99.90
871;DHT22;422;51.280;7.236;2023-05-07T15:56:29;16.70;99.90
871;DHT22;422;51.280;7.236;2023-05-07T15:58:58;16.70;99.90
871;DHT22;422;51.280;7.236;2023-05-07T16:01:25;16.80;99.90
871;DHT22;422;51.280;7.236;2023-05-07T16:03:52;16.90;99.90
871;DHT22;422;51.280;7.236;2023-05-07T16:06:21;17.00;99.90
871;DHT22;422;51.280;7.236;2023-05-07T16:08:48;17.10;99.90
871;DHT22;422;51.280;7.236;2023-05-07T16:11:15;17.20;99.90
871;DHT22;422;51.280;7.236;2023-05-07T16:13:43;17.20;99.90
871;DHT22;422;51.280;7.236;2023-05-07T16:16:10;17.20;99.90
871;DHT22;422;51.280;7.236;2023-05-07T16:18:37;17.30;99.90
871;DHT22;422;51.280;7.236;2023-05-07T16:21:05;17.30;99.90
871;DHT22;422;51.280;7.236;2023-05-07T16:23:34;17.40;99.90
871;DHT22;422;51.280;7.236;2023-05-07T16:26:02;17.40;99.90
871;DHT22;422;51.280;7.236;2023-05-07T16:28:30;17.40;99.90
871;DHT22;422;51.280;7.236;2023-05-07T16:30:57;17.50;99.90
871;DHT22;422;51.280;7.236;2023-05-07T16:33:25;17.50;1.00
871;DHT22;422;51.280;7.236;2023-05-07T16:35:52;17.50;99.90
871;DHT22;422;51.280;7.236;2023-05-07T16:38:19;17.50;1.00
871;DHT22;422;51.280;7.236;2023-05-07T16:40:48;17.30;99.90
871;DHT22;422;51.280;7.236;2023-05-07T16:43:15;17.20;98.80
871;DHT22;422;51.280;7.236;2023-05-07T16:45:42;17.20;99.90
871;DHT22;422;51.280;7.236;2023-05-07T16:48:09;17.20;99.90
871;DHT22;422;51.280;7.236;2023-05-07T16:50:36;17.10;99.90